Savannah/Hunter AAF, Georgia
Current Conditions -  °F | °C
As of 9:58 AM on Monday 22 Dec 2014 (Local Time) from KSVN Reporting Station
Haze Haze  
Wind Chill: 47°   Ceiling: 300
Heat Index: 49°   Visibility: 1.5mi
Dew Point: 49°   Wind: 6mph
Humidity: 100%   Direction: 30°NNE
Pressure: 30.05"   Gusts: NA
Location:  32.02°N, 81.15°W
Report Text: KSVN 221458Z 03005KT 1 1/2SM BR OVC003 10/10 A3005 RMK AO2A SLP179 T00960096 52008
Loading
Personal Weather Stations






























Interactive Weather Map New forecast layout! Learn more

10-Day Weather Forecast

Advertisements
Track Severe Weather on mobile